Time;durP1;ratioP1;P1;durP2;ratioP2;P2;SDS_P1;SDS_P2;PMS_P1;PMS_P2;Temp;Humidity;BMP_temperature;BMP_pressure;BME280_temperature;BME280_humidity;BME280_pressure;Samples;Min_cycle;Max_cycle;Signal;HPM_P1;HPM_P2
2024/02/25 00:00:55;;;;;;;16.02;9.93;;;2.70;99.90;;;;;;5108008;28;20032;-46
2024/02/25 00:03:21;;;;;;;21.92;12.43;;;2.70;99.90;;;;;;5107579;28;20162;-47
2024/02/25 00:05:46;;;;;;;15.50;9.55;;;2.70;99.90;;;;;;5108036;28;20027;-47
2024/02/25 00:08:12;;;;;;;15.63;9.82;;;2.70;99.90;;;;;;5108007;28;20060;-47
2024/02/25 00:10:38;;;;;;;17.35;10.32;;;2.70;99.90;;;;;;5108024;28;20181;-47
2024/02/25 00:13:04;;;;;;;16.55;9.98;;;2.70;99.90;;;;;;5107538;28;20027;-47
2024/02/25 00:15:29;;;;;;;15.88;10.05;;;2.70;99.90;;;;;;5107728;28;20280;-46
2024/02/25 00:17:55;;;;;;;21.10;12.73;;;2.70;99.90;;;;;;5107429;28;20020;-47
2024/02/25 00:20:21;;;;;;;18.50;10.93;;;2.70;99.90;;;;;;5107958;28;20087;-46
2024/02/25 00:22:46;;;;;;;22.27;11.63;;;2.70;99.90;;;;;;5107414;28;20113;-47
2024/02/25 00:25:12;;;;;;;17.58;10.82;;;2.70;99.90;;;;;;5107665;28;20024;-46
2024/02/25 00:27:38;;;;;;;20.27;11.10;;;2.60;99.90;;;;;;5107732;28;20255;-46
2024/02/25 00:30:04;;;;;;;21.50;11.68;;;2.60;99.90;;;;;;5107500;28;20036;-46
2024/02/25 00:32:29;;;;;;;27.48;14.45;;;2.70;99.90;;;;;;5106900;28;20089;-47
2024/02/25 00:34:55;;;;;;;20.92;11.25;;;2.70;99.90;;;;;;5107634;28;20095;-46
2024/02/25 00:37:21;;;;;;;20.27;10.50;;;2.70;99.90;;;;;;5107667;28;20048;-47
2024/02/25 00:39:46;;;;;;;17.95;9.70;;;2.70;99.90;;;;;;5107362;28;20031;-46
2024/02/25 00:42:12;;;;;;;15.57;9.32;;;2.60;99.90;;;;;;5107470;28;20024;-46
2024/02/25 00:44:39;;;;;;;12.68;8.50;;;2.60;99.90;;;;;;5107444;28;20036;-45
2024/02/25 00:47:05;;;;;;;17.20;8.55;;;2.70;99.90;;;;;;5107234;28;20036;-45
2024/02/25 00:49:31;;;;;;;13.18;7.82;;;2.60;99.90;;;;;;5107292;28;20030;-46
2024/02/25 00:51:56;;;;;;;15.15;8.25;;;2.60;99.90;;;;;;5106381;28;20035;-47
2024/02/25 00:54:22;;;;;;;12.32;7.32;;;2.60;99.90;;;;;;5107318;28;20210;-46
2024/02/25 00:56:48;;;;;;;13.70;7.55;;;2.60;99.90;;;;;;5106905;28;20024;-46
2024/02/25 00:59:16;;;;;;;14.75;8.73;;;2.60;99.90;;;;;;5107096;28;20035;-46
2024/02/25 01:01:42;;;;;;;14.70;9.00;;;2.60;99.90;;;;;;5106950;28;20290;-46
2024/02/25 01:04:08;;;;;;;15.02;8.63;;;2.70;99.90;;;;;;5106512;28;20031;-45
2024/02/25 01:06:34;;;;;;;15.40;8.60;;;2.70;99.90;;;;;;5106535;28;20081;-45
2024/02/25 01:08:59;;;;;;;13.40;7.78;;;2.60;99.90;;;;;;5106771;28;20038;-46
2024/02/25 01:11:25;;;;;;;13.23;7.82;;;2.70;99.90;;;;;;5106709;28;20116;-46
2024/02/25 01:13:50;;;;;;;12.65;7.57;;;2.60;99.90;;;;;;5106896;28;20212;-46
2024/02/25 01:16:16;;;;;;;14.13;7.15;;;2.60;99.90;;;;;;5106196;28;20028;-46
2024/02/25 01:18:42;;;;;;;14.68;7.00;;;2.60;99.90;;;;;;5088867;28;20039;-46
2024/02/25 01:21:08;;;;;;;11.45;7.03;;;2.50;99.90;;;;;;5106473;28;20024;-46
2024/02/25 01:23:33;;;;;;;12.15;6.32;;;2.50;99.90;;;;;;5106389;28;20051;-46
2024/02/25 01:25:59;;;;;;;11.02;5.97;;;2.50;99.90;;;;;;5106576;28;20028;-46
2024/02/25 01:28:25;;;;;;;10.07;6.22;;;2.50;99.90;;;;;;5106542;28;20103;-46
2024/02/25 01:30:50;;;;;;;10.27;6.07;;;2.50;99.90;;;;;;5106249;28;20020;-47
2024/02/25 01:33:17;;;;;;;11.40;5.35;;;2.50;99.90;;;;;;5106700;28;20031;-46
2024/02/25 01:35:43;;;;;;;9.90;5.22;;;2.50;99.90;;;;;;5106097;28;20045;-46
2024/02/25 01:38:09;;;;;;;10.10;5.50;;;2.50;99.90;;;;;;5106073;28;20024;-47
2024/02/25 01:40:34;;;;;;;12.00;5.68;;;2.50;99.90;;;;;;5106408;28;20024;-47
2024/02/25 01:43:10;;;;;;;10.75;5.93;;;2.50;99.90;;;;;;5106062;28;20052;-46
2024/02/25 01:45:35;;;;;;;11.32;5.95;;;2.50;99.90;;;;;;5106281;28;20043;-45
2024/02/25 01:48:03;;;;;;;12.75;5.95;;;2.50;99.90;;;;;;5106150;28;20099;-45
2024/02/25 01:50:28;;;;;;;10.63;5.80;;;2.50;99.90;;;;;;5106211;28;20139;-45
2024/02/25 01:52:54;;;;;;;10.93;6.35;;;2.40;99.90;;;;;;5105935;28;20141;-45
2024/02/25 01:55:23;;;;;;;11.93;6.10;;;2.40;99.90;;;;;;5105248;28;20051;-47
2024/02/25 01:57:48;;;;;;;11.15;6.40;;;2.40;99.90;;;;;;5105939;28;20020;-46
2024/02/25 02:00:16;;;;;;;8.98;5.30;;;2.40;99.90;;;;;;5106290;28;20065;-45
2024/02/25 02:02:42;;;;;;;12.00;5.20;;;2.50;99.90;;;;;;5105079;28;20040;-46
2024/02/25 02:05:11;;;;;;;10.48;5.15;;;2.40;99.90;;;;;;5105938;28;20299;-46
2024/02/25 02:07:39;;;;;;;8.57;4.70;;;2.40;99.90;;;;;;5105516;28;20051;-46
2024/02/25 02:10:08;;;;;;;9.85;4.72;;;2.40;99.90;;;;;;5104807;28;20046;-47
2024/02/25 02:12:41;;;;;;;8.23;4.03;;;2.30;99.90;;;;;;5105811;28;20087;-46
2024/02/25 02:15:10;;;;;;;7.60;4.00;;;2.30;99.90;;;;;;5105667;28;20172;-45
2024/02/25 02:17:40;;;;;;;6.67;3.80;;;2.30;99.90;;;;;;5105836;28;20052;-45
2024/02/25 02:20:11;;;;;;;7.50;3.53;;;2.20;99.90;;;;;;5104803;28;20048;-46
2024/02/25 02:22:40;;;;;;;5.32;3.05;;;2.20;99.90;;;;;;5105676;28;20369;-47
2024/02/25 02:25:06;;;;;;;6.88;3.75;;;2.20;99.90;;;;;;5105461;28;20369;-45
2024/02/25 02:27:32;;;;;;;7.93;3.95;;;2.10;99.90;;;;;;5107749;28;20020;-46
2024/02/25 02:29:58;;;;;;;8.43;4.18;;;2.10;99.90;;;;;;5109907;28;20301;-45
2024/02/25 02:32:23;;;;;;;10.07;3.90;;;2.10;99.90;;;;;;5110009;28;20207;-45
2024/02/25 02:34:49;;;;;;;7.20;3.55;;;2.20;99.90;;;;;;5109647;28;20059;-46
2024/02/25 02:37:14;;;;;;;7.75;4.10;;;2.10;99.90;;;;;;5091818;28;20047;-47
2024/02/25 02:39:40;;;;;;;7.78;3.78;;;2.10;99.90;;;;;;5109404;28;20346;-46
2024/02/25 02:42:10;;;;;;;7.00;3.83;;;2.10;99.90;;;;;;5109759;28;20036;-46
2024/02/25 02:44:36;;;;;;;8.93;4.10;;;2.10;99.90;;;;;;5109675;28;20078;-46
2024/02/25 02:47:02;;;;;;;8.73;3.72;;;2.10;99.90;;;;;;5109402;28;20036;-46
2024/02/25 02:49:27;;;;;;;7.25;4.05;;;2.20;99.90;;;;;;5091517;28;20028;-46
2024/02/25 02:51:53;;;;;;;7.72;3.80;;;2.10;99.90;;;;;;5109551;28;20027;-45
2024/02/25 02:54:18;;;;;;;6.45;3.75;;;2.20;99.90;;;;;;5109595;28;20269;-46
2024/02/25 02:56:44;;;;;;;5.88;3.45;;;2.10;99.90;;;;;;5109639;28;20024;-45
2024/02/25 02:59:10;;;;;;;7.78;4.13;;;2.10;99.90;;;;;;5109187;28;20039;-46
2024/02/25 03:01:35;;;;;;;7.03;3.65;;;2.00;99.90;;;;;;5108523;28;20077;-46
2024/02/25 03:04:01;;;;;;;5.45;3.67;;;2.00;99.90;;;;;;5109410;28;20043;-47
2024/02/25 03:06:27;;;;;;;8.05;3.65;;;2.00;99.90;;;;;;5109285;28;20042;-45
2024/02/25 03:08:52;;;;;;;8.93;3.63;;;2.10;99.90;;;;;;5108857;28;20077;-46
2024/02/25 03:11:18;;;;;;;8.60;4.10;;;2.00;99.90;;;;;;5109392;28;20298;-46
2024/02/25 03:13:43;;;;;;;7.65;3.80;;;2.00;99.90;;;;;;5109039;28;20036;-46
2024/02/25 03:16:09;;;;;;;8.90;4.35;;;2.00;99.90;;;;;;5109051;28;20024;-45
2024/02/25 03:18:36;;;;;;;6.65;4.00;;;2.10;99.90;;;;;;5109145;28;20043;-47
2024/02/25 03:21:02;;;;;;;8.77;3.92;;;2.10;99.90;;;;;;5108787;28;20031;-45
2024/02/25 03:23:27;;;;;;;6.97;3.78;;;2.20;99.90;;;;;;5108794;28;20129;-46
2024/02/25 03:25:53;;;;;;;7.43;4.20;;;2.20;99.90;;;;;;5108913;28;20231;-47
2024/02/25 03:28:20;;;;;;;8.00;4.20;;;2.20;99.90;;;;;;5108405;28;20047;-46
2024/02/25 03:30:45;;;;;;;8.05;3.90;;;2.30;99.90;;;;;;5108442;28;20031;-46
2024/02/25 03:33:11;;;;;;;6.65;3.75;;;2.30;99.90;;;;;;5108832;28;20047;-46
2024/02/25 03:35:37;;;;;;;7.63;3.97;;;2.30;99.90;;;;;;5108910;28;20074;-45
2024/02/25 03:38:02;;;;;;;7.78;4.35;;;2.30;99.90;;;;;;5108265;28;20024;-47
2024/02/25 03:40:28;;;;;;;8.23;4.22;;;2.30;99.90;;;;;;5108235;28;20035;-45
2024/02/25 03:42:54;;;;;;;7.80;4.07;;;2.30;99.90;;;;;;5108547;28;20103;-46
2024/02/25 03:45:20;;;;;;;8.13;3.85;;;2.30;99.90;;;;;;5108319;28;20296;-45
2024/02/25 03:47:46;;;;;;;5.95;3.55;;;2.20;99.90;;;;;;5108441;28;20024;-46
2024/02/25 03:50:12;;;;;;;6.22;3.33;;;2.30;99.90;;;;;;5108668;28;20124;-46
2024/02/25 03:52:40;;;;;;;6.93;3.25;;;2.30;99.90;;;;;;5108489;28;20020;-46
2024/02/25 03:55:07;;;;;;;7.28;3.38;;;2.30;99.90;;;;;;5108414;28;20051;-46
2024/02/25 03:57:32;;;;;;;5.53;3.20;;;2.30;99.90;;;;;;5108299;28;20028;-46
2024/02/25 03:59:58;;;;;;;5.60;3.33;;;2.30;99.90;;;;;;5107111;28;20023;-47
2024/02/25 04:02:24;;;;;;;5.65;3.42;;;2.40;99.90;;;;;;5107841;28;20028;-46
2024/02/25 04:04:49;;;;;;;5.20;3.28;;;2.40;99.90;;;;;;5108109;28;20067;-45
2024/02/25 04:07:15;;;;;;;6.40;3.40;;;2.40;99.90;;;;;;5108093;28;20032;-46
2024/02/25 04:09:41;;;;;;;8.75;3.90;;;2.30;99.90;;;;;;5107979;28;20020;-46
2024/02/25 04:12:07;;;;;;;4.50;2.80;;;2.30;99.90;;;;;;5108086;28;20098;-46
2024/02/25 04:14:33;;;;;;;8.20;3.15;;;2.30;99.90;;;;;;5107576;28;20020;-46
2024/02/25 04:16:59;;;;;;;6.50;3.28;;;2.30;99.90;;;;;;5107778;28;20084;-46
2024/02/25 04:19:25;;;;;;;5.60;2.80;;;2.30;99.90;;;;;;5107791;28;20039;-45
2024/02/25 04:21:51;;;;;;;5.93;3.13;;;2.30;99.90;;;;;;5107934;28;20046;-45
2024/02/25 04:24:16;;;;;;;6.90;3.63;;;2.30;99.90;;;;;;5107808;28;20243;-45
2024/02/25 04:26:47;;;;;;;7.65;3.67;;;2.40;99.90;;;;;;5108090;28;20036;-47
2024/02/25 04:29:13;;;;;;;5.97;3.95;;;2.40;99.90;;;;;;5107632;28;20043;-45
2024/02/25 04:31:51;;;;;;;6.88;3.55;;;2.40;99.90;;;;;;5107456;28;20273;-45
2024/02/25 04:34:17;;;;;;;7.50;3.50;;;2.30;99.90;;;;;;5106614;28;20028;-46
2024/02/25 04:36:42;;;;;;;5.68;3.33;;;2.30;99.90;;;;;;5107710;28;20030;-46
2024/02/25 04:39:11;;;;;;;6.43;3.30;;;2.40;99.90;;;;;;5107708;28;20024;-46
2024/02/25 04:41:36;;;;;;;6.28;3.33;;;2.40;99.90;;;;;;5107523;28;20047;-46
2024/02/25 04:44:02;;;;;;;6.28;3.30;;;2.40;99.90;;;;;;5107464;28;20027;-46
2024/02/25 04:46:27;;;;;;;6.63;2.85;;;2.40;99.90;;;;;;5107442;28;20055;-46
2024/02/25 04:48:53;;;;;;;6.15;3.10;;;2.40;99.90;;;;;;5089182;28;20335;-46
2024/02/25 04:51:19;;;;;;;5.80;2.50;;;2.30;99.90;;;;;;5107143;28;20065;-46
2024/02/25 04:53:44;;;;;;;6.68;3.00;;;2.30;99.90;;;;;;5107239;28;20250;-46
2024/02/25 04:56:10;;;;;;;4.95;3.15;;;2.30;99.90;;;;;;5107405;28;20028;-45
2024/02/25 04:58:36;;;;;;;4.68;2.72;;;2.30;99.90;;;;;;5107275;28;20043;-46
2024/02/25 05:01:01;;;;;;;6.70;3.42;;;2.30;99.90;;;;;;5107331;28;20036;-45
2024/02/25 05:03:27;;;;;;;4.88;3.13;;;2.40;99.90;;;;;;5106699;28;20028;-45
2024/02/25 05:05:53;;;;;;;5.07;2.90;;;2.40;99.90;;;;;;5107152;28;20175;-46
2024/02/25 05:08:18;;;;;;;6.28;3.30;;;2.40;99.90;;;;;;5107129;28;20047;-45
2024/02/25 05:10:44;;;;;;;7.78;4.03;;;2.30;99.90;;;;;;5107081;28;20214;-46
2024/02/25 05:13:09;;;;;;;4.55;3.00;;;2.40;99.90;;;;;;5107140;28;20081;-45
2024/02/25 05:15:35;;;;;;;7.03;2.97;;;2.40;99.90;;;;;;5107128;28;20077;-46
2024/02/25 05:18:01;;;;;;;5.10;2.60;;;2.40;99.90;;;;;;5107254;28;20280;-45
2024/02/25 05:20:27;;;;;;;4.95;2.78;;;2.30;99.90;;;;;;5106851;28;20269;-47
2024/02/25 05:22:53;;;;;;;5.28;3.08;;;2.30;99.90;;;;;;5106343;28;20075;-46
2024/02/25 05:25:19;;;;;;;7.05;3.00;;;2.40;99.90;;;;;;5106459;28;20031;-46
2024/02/25 05:27:46;;;;;;;4.20;2.65;;;2.50;99.90;;;;;;5106698;28;20055;-46
2024/02/25 05:30:12;;;;;;;6.32;3.45;;;2.50;99.90;;;;;;5107070;28;20095;-47
2024/02/25 05:32:38;;;;;;;4.07;2.67;;;2.50;99.90;;;;;;5106663;28;20062;-46
2024/02/25 05:35:05;;;;;;;3.75;2.55;;;2.50;99.90;;;;;;5106180;28;20024;-46
2024/02/25 05:37:31;;;;;;;4.40;2.90;;;2.60;99.90;;;;;;5106479;28;20051;-45
2024/02/25 05:39:57;;;;;;;4.57;2.58;;;2.50;99.90;;;;;;5106358;28;20087;-45
2024/02/25 05:42:23;;;;;;;6.15;2.80;;;2.50;99.90;;;;;;5106446;28;20036;-45
2024/02/25 05:44:49;;;;;;;6.05;2.55;;;2.50;99.90;;;;;;5106421;28;20040;-45
2024/02/25 05:47:14;;;;;;;6.65;3.00;;;2.40;99.90;;;;;;5106072;28;20043;-46
2024/02/25 05:49:40;;;;;;;6.32;3.03;;;2.50;99.90;;;;;;5106023;28;20028;-46
2024/02/25 05:52:06;;;;;;;5.85;3.00;;;2.60;99.90;;;;;;5106334;28;20103;-46
2024/02/25 05:54:31;;;;;;;7.63;2.95;;;2.60;99.90;;;;;;5105709;28;20058;-46
2024/02/25 05:56:57;;;;;;;4.68;2.58;;;2.60;99.90;;;;;;5105725;28;20088;-46
2024/02/25 05:59:23;;;;;;;5.57;4.93;;;2.50;99.90;;;;;;5105700;28;20032;-46
2024/02/25 06:01:48;;;;;;;6.55;3.75;;;2.50;99.90;;;;;;5105531;28;20035;-46
2024/02/25 06:04:16;;;;;;;7.47;3.55;;;2.60;99.90;;;;;;5088250;28;20027;-46
2024/02/25 06:06:43;;;;;;;6.90;3.45;;;2.60;99.90;;;;;;5105882;28;20340;-46
2024/02/25 06:09:10;;;;;;;5.43;3.00;;;2.60;99.90;;;;;;5105583;28;20190;-46
2024/02/25 06:11:37;;;;;;;6.72;3.00;;;2.70;99.90;;;;;;5106169;28;20020;-45
2024/02/25 06:14:02;;;;;;;4.90;2.90;;;2.70;99.90;;;;;;5105824;28;20024;-45
2024/02/25 06:16:32;;;;;;;6.32;3.10;;;2.70;99.90;;;;;;5087908;28;20316;-46
2024/02/25 06:18:58;;;;;;;6.82;2.92;;;2.80;99.90;;;;;;5105461;28;20266;-46
2024/02/25 06:21:24;;;;;;;5.95;2.90;;;2.80;99.90;;;;;;5105511;28;20388;-46
2024/02/25 06:23:50;;;;;;;6.47;2.80;;;2.80;99.90;;;;;;5105571;28;20056;-45
2024/02/25 06:26:16;;;;;;;5.68;2.60;;;2.70;99.90;;;;;;5105261;28;20055;-46
2024/02/25 06:28:41;;;;;;;5.32;2.65;;;2.80;99.90;;;;;;5105635;28;20060;-46
2024/02/25 06:31:07;;;;;;;4.97;2.60;;;2.70;99.90;;;;;;5105839;28;20097;-46
2024/02/25 06:33:33;;;;;;;6.70;2.30;;;2.70;99.90;;;;;;5104929;28;20166;-47
2024/02/25 06:35:58;;;;;;;5.63;2.20;;;2.70;99.90;;;;;;5105818;28;20157;-46
2024/02/25 06:38:24;;;;;;;4.18;2.50;;;2.70;99.90;;;;;;5105642;28;20282;-46
2024/02/25 06:40:50;;;;;;;5.50;2.40;;;2.70;99.90;;;;;;5105281;28;20032;-46
2024/02/25 06:43:15;;;;;;;3.72;2.55;;;2.70;99.90;;;;;;5105695;28;20091;-46
2024/02/25 06:45:41;;;;;;;4.97;2.50;;;2.60;99.90;;;;;;5105551;28;20020;-45
2024/02/25 06:48:07;;;;;;;4.35;2.47;;;2.60;99.90;;;;;;5105423;28;20032;-46
2024/02/25 06:50:32;;;;;;;6.90;2.58;;;2.60;99.90;;;;;;5105509;28;20040;-46
2024/02/25 06:52:58;;;;;;;6.43;2.72;;;2.60;99.90;;;;;;5104518;28;20039;-46
2024/02/25 06:55:24;;;;;;;5.80;2.90;;;2.60;99.90;;;;;;5105233;28;20035;-45
2024/02/25 06:57:49;;;;;;;5.25;2.25;;;2.50;99.90;;;;;;5104999;28;20067;-46
2024/02/25 07:00:15;;;;;;;5.13;2.28;;;2.60;99.90;;;;;;5105525;28;20040;-47
2024/02/25 07:02:41;;;;;;;7.38;2.72;;;2.60;99.90;;;;;;5105662;28;20043;-46
2024/02/25 07:05:08;;;;;;;4.80;2.75;;;2.60;99.90;;;;;;5105537;28;20333;-45
2024/02/25 07:07:33;;;;;;;5.03;2.53;;;2.60;99.90;;;;;;5105332;28;20099;-45
2024/02/25 07:09:59;;;;;;;4.68;2.47;;;2.60;99.90;;;;;;5105424;28;20040;-46
2024/02/25 07:12:25;;;;;;;4.90;2.65;;;2.60;99.90;;;;;;5105382;28;20044;-46
2024/02/25 07:14:51;;;;;;;5.88;2.55;;;2.60;99.90;;;;;;5107336;28;20047;-47
2024/02/25 07:17:16;;;;;;;5.13;2.60;;;2.60;99.90;;;;;;5109098;28;20028;-46
2024/02/25 07:19:45;;;;;;;4.88;2.25;;;2.50;99.90;;;;;;5109024;28;20024;-45
2024/02/25 07:22:11;;;;;;;5.93;2.72;;;2.50;99.90;;;;;;5108877;28;20047;-46
2024/02/25 07:24:40;;;;;;;5.40;2.47;;;2.50;99.90;;;;;;5109033;28;20212;-46
2024/02/25 07:27:06;;;;;;;4.53;2.67;;;2.50;99.90;;;;;;5109132;28;20042;-45
2024/02/25 07:29:32;;;;;;;5.05;2.55;;;2.50;99.90;;;;;;5108592;28;20035;-46
2024/02/25 07:31:58;;;;;;;7.13;3.97;;;2.50;99.90;;;;;;5108761;28;20173;-46
2024/02/25 07:34:25;;;;;;;4.88;2.50;;;2.50;99.90;;;;;;5108811;28;20055;-46
2024/02/25 07:36:50;;;;;;;6.10;3.17;;;2.40;99.90;;;;;;5108587;28;20068;-47
2024/02/25 07:39:16;;;;;;;5.82;2.72;;;2.40;99.90;;;;;;5108838;28;20028;-46
2024/02/25 07:41:44;;;;;;;5.13;2.40;;;2.50;99.90;;;;;;5108345;28;20032;-46
2024/02/25 07:44:10;;;;;;;5.00;2.88;;;2.50;99.90;;;;;;5108517;28;20036;-45
2024/02/25 07:46:36;;;;;;;4.90;2.50;;;2.50;99.90;;;;;;5108530;28;20031;-46
2024/02/25 07:49:02;;;;;;;5.63;2.75;;;2.50;99.90;;;;;;5108275;28;20036;-46
2024/02/25 07:51:33;;;;;;;5.82;3.00;;;2.50;99.90;;;;;;5107656;28;20032;-46
2024/02/25 07:53:58;;;;;;;3.72;2.40;;;2.60;99.90;;;;;;5108388;28;20016;-45
2024/02/25 07:56:24;;;;;;;4.50;2.88;;;2.60;99.90;;;;;;5108300;28;20038;-46
2024/02/25 07:58:49;;;;;;;4.57;2.60;;;2.70;99.90;;;;;;5107715;28;20039;-46
2024/02/25 08:01:15;;;;;;;5.30;3.60;;;2.80;99.90;;;;;;5107747;28;20028;-45
2024/02/25 08:03:41;;;;;;;5.35;2.58;;;2.90;99.90;;;;;;5108011;28;20032;-46
2024/02/25 08:06:06;;;;;;;24.10;14.68;;;3.00;99.90;;;;;;5108520;28;20183;-47
2024/02/25 08:08:32;;;;;;;7.45;3.10;;;3.50;99.90;;;;;;5108259;28;20060;-46
2024/02/25 08:10:58;;;;;;;5.13;2.70;;;4.10;99.90;;;;;;5108119;28;20031;-46
2024/02/25 08:13:24;;;;;;;4.93;2.95;;;4.80;99.90;;;;;;5107803;28;20067;-46
2024/02/25 08:15:49;;;;;;;4.43;2.40;;;5.40;99.90;;;;;;5107864;28;20172;-45
2024/02/25 08:18:15;;;;;;;3.95;2.15;;;5.80;99.90;;;;;;5108000;28;20024;-47
2024/02/25 08:20:40;;;;;;;5.38;2.25;;;5.90;99.90;;;;;;5108233;28;20161;-47
2024/02/25 08:23:06;;;;;;;2.67;1.63;;;6.20;99.90;;;;;;5107664;28;20214;-46
2024/02/25 08:25:32;;;;;;;2.33;1.50;;;6.70;99.90;;;;;;5089441;28;20169;-46
2024/02/25 08:27:57;;;;;;;6.20;2.10;;;7.10;99.90;;;;;;5107560;28;20054;-46
2024/02/25 08:30:24;;;;;;;3.55;1.50;;;7.70;99.90;;;;;;5108195;28;20140;-47
2024/02/25 08:32:50;;;;;;;4.50;1.40;;;8.40;99.90;;;;;;5107284;28;20031;-47
2024/02/25 08:35:15;;;;;;;3.72;1.70;;;8.60;99.90;;;;;;5089653;28;20032;-47
2024/02/25 08:37:41;;;;;;;3.30;1.35;;;8.70;99.90;;;;;;5107398;28;20079;-45
2024/02/25 08:40:07;;;;;;;2.35;1.40;;;9.00;99.90;;;;;;5107548;28;20030;-46
2024/02/25 08:42:33;;;;;;;3.15;1.25;;;9.50;99.90;;;;;;5107435;28;20339;-48
2024/02/25 08:44:58;;;;;;;1.55;1.30;;;10.10;99.90;;;;;;5107153;28;20092;-45
2024/02/25 08:47:24;;;;;;;2.95;1.52;;;10.60;99.90;;;;;;5107070;28;20077;-45
2024/02/25 08:49:50;;;;;;;3.45;1.30;;;11.00;99.90;;;;;;5106749;28;20369;-46
2024/02/25 08:52:16;;;;;;;4.57;1.75;;;11.70;99.90;;;;;;5107371;28;20262;-46
2024/02/25 08:54:42;;;;;;;4.13;1.52;;;12.10;99.90;;;;;;5107189;28;20032;-46
2024/02/25 08:57:08;;;;;;;2.40;1.40;;;12.30;99.90;;;;;;5106890;28;20034;-46
2024/02/25 08:59:34;;;;;;;2.72;1.30;;;12.80;99.90;;;;;;5107015;28;20181;-47
2024/02/25 09:02:00;;;;;;;4.95;1.40;;;12.90;99.90;;;;;;5106982;28;20023;-48
2024/02/25 09:04:27;;;;;;;2.88;1.25;;;13.00;99.90;;;;;;5107285;28;20040;-45
2024/02/25 09:06:56;;;;;;;1.92;1.00;;;12.90;99.90;;;;;;5106585;28;20234;-49
2024/02/25 09:09:22;;;;;;;2.28;1.00;;;12.60;99.90;;;;;;5106721;28;20308;-48
2024/02/25 09:11:48;;;;;;;1.52;1.20;;;12.80;99.90;;;;;;5107135;28;20085;-46
2024/02/25 09:14:13;;;;;;;1.58;0.98;;;12.40;99.90;;;;;;5106830;28;20031;-45
2024/02/25 09:16:39;;;;;;;3.25;1.10;;;12.40;99.90;;;;;;5106857;28;20078;-48
2024/02/25 09:19:04;;;;;;;2.03;1.10;;;12.50;99.90;;;;;;5106791;28;20027;-45
2024/02/25 09:21:30;;;;;;;1.60;1.00;;;12.60;99.90;;;;;;5106677;28;20083;-47
2024/02/25 09:23:57;;;;;;;2.80;1.45;;;11.50;99.90;;;;;;5106713;28;20200;-47
2024/02/25 09:26:22;;;;;;;2.72;1.10;;;11.10;99.90;;;;;;5106775;28;20040;-47
2024/02/25 09:28:48;;;;;;;1.55;0.80;;;11.30;99.90;;;;;;5105740;28;20120;-46
2024/02/25 09:31:20;;;;;;;3.70;1.45;;;11.40;99.90;;;;;;5106343;28;20176;-46
2024/02/25 09:33:49;;;;;;;2.20;1.10;;;11.70;99.90;;;;;;5105322;28;20024;-46
2024/02/25 09:36:15;;;;;;;4.95;1.17;;;11.00;99.90;;;;;;5105363;28;20051;-48
2024/02/25 09:38:41;;;;;;;1.85;1.20;;;10.30;99.90;;;;;;5105853;28;20052;-45
2024/02/25 09:41:08;;;;;;;2.75;1.20;;;9.70;99.90;;;;;;5106457;28;20032;-48
2024/02/25 09:43:34;;;;;;;2.60;1.02;;;9.40;99.90;;;;;;5105540;28;20028;-47
2024/02/25 09:46:00;;;;;;;3.15;1.20;;;9.10;99.90;;;;;;5105317;28;20312;-45
2024/02/25 09:48:25;;;;;;;3.00;1.25;;;9.00;99.90;;;;;;5088597;28;20113;-45
2024/02/25 09:50:52;;;;;;;2.15;1.23;;;8.80;99.90;;;;;;5106185;28;20020;-45
2024/02/25 09:53:19;;;;;;;2.58;1.20;;;8.60;99.90;;;;;;5106063;28;20032;-44
2024/02/25 09:55:45;;;;;;;2.45;1.02;;;8.30;99.90;;;;;;5106360;28;20117;-47
2024/02/25 09:58:11;;;;;;;3.85;1.45;;;8.10;99.90;;;;;;5106792;28;20031;-45
2024/02/25 10:00:38;;;;;;;2.17;1.08;;;8.10;99.90;;;;;;5105900;28;20258;-45
2024/02/25 10:03:07;;;;;;;3.75;2.05;;;8.00;99.90;;;;;;5105597;28;20028;-47
2024/02/25 10:05:33;;;;;;;3.85;2.00;;;8.10;99.90;;;;;;5105703;28;20020;-47
2024/02/25 10:08:11;;;;;;;2.30;2.08;;;8.10;99.90;;;;;;5105967;28;20073;-45
2024/02/25 10:10:40;;;;;;;3.78;1.75;;;7.90;99.90;;;;;;5105794;28;20038;-45
2024/02/25 10:13:05;;;;;;;3.35;1.98;;;7.70;99.90;;;;;;5105805;28;20249;-46
2024/02/25 10:15:31;;;;;;;2.80;2.05;;;7.60;99.90;;;;;;5104835;28;20031;-48
2024/02/25 10:17:57;;;;;;;3.63;1.77;;;7.50;99.90;;;;;;5105520;28;20115;-45
2024/02/25 10:20:22;;;;;;;3.97;2.58;;;7.60;99.90;;;;;;5105799;28;20020;-47
2024/02/25 10:23:07;;;;;;;4.50;2.30;;;7.70;99.90;;;;;;5087342;28;20117;-46
2024/02/25 10:25:32;;;;;;;5.47;2.13;;;8.60;99.90;;;;;;5104534;28;20297;-45
2024/02/25 10:28:14;;;;;;;4.35;2.30;;;10.30;99.90;;;;;;5104559;28;20020;-45
2024/02/25 10:30:40;;;;;;;3.92;1.65;;;11.70;99.90;;;;;;5105779;28;20069;-45
2024/02/25 10:33:14;;;;;;;2.15;1.27;;;12.40;99.90;;;;;;5104460;28;20031;-45
2024/02/25 10:35:39;;;;;;;3.95;1.50;;;12.60;99.90;;;;;;5105369;28;20170;-46
2024/02/25 10:38:06;;;;;;;8.23;1.67;;;12.90;99.90;;;;;;5105462;28;20124;-46
2024/02/25 10:40:32;;;;;;;4.47;1.80;;;13.30;99.90;;;;;;5087808;28;20027;-49
2024/02/25 10:42:58;;;;;;;2.17;1.60;;;13.80;99.90;;;;;;5105764;28;20055;-49
2024/02/25 10:45:23;;;;;;;2.08;1.20;;;13.70;99.90;;;;;;5104583;28;20032;-50
2024/02/25 10:47:49;;;;;;;2.15;1.25;;;13.10;99.90;;;;;;5088529;28;20273;-46
2024/02/25 10:50:15;;;;;;;2.90;1.52;;;12.70;99.90;;;;;;5091762;28;20043;-46
2024/02/25 10:52:41;;;;;;;2.63;1.58;;;12.90;99.90;;;;;;5108844;28;20104;-48
2024/02/25 10:55:08;;;;;;;4.03;1.50;;;13.60;99.90;;;;;;5091443;28;20047;-49
2024/02/25 10:57:34;;;;;;;2.22;1.55;;;13.60;99.90;;;;;;5091263;28;20082;-46
2024/02/25 11:00:00;;;;;;;2.83;1.60;;;13.20;99.90;;;;;;5108315;28;20160;-49
2024/02/25 11:02:26;;;;;;;3.97;1.98;;;13.10;99.90;;;;;;5108523;28;20083;-49
2024/02/25 11:04:52;;;;;;;3.70;1.70;;;13.80;99.90;;;;;;5108333;28;20028;-47
2024/02/25 11:07:18;;;;;;;2.75;1.70;;;13.70;99.90;;;;;;5091173;28;20049;-47
2024/02/25 11:09:43;;;;;;;4.38;1.80;;;12.10;99.90;;;;;;5108990;28;20050;-46
2024/02/25 11:12:27;;;;;;;3.92;2.28;;;11.60;99.90;;;;;;5109159;28;20274;-47
2024/02/25 11:15:02;;;;;;;5.55;2.10;;;12.10;99.90;;;;;;5090834;28;20043;-49
2024/02/25 11:20:28;;;;;;;3.75;1.77;;;11.70;99.90;;;;;;5108854;28;20034;-47
2024/02/25 11:22:55;;;;;;;3.28;1.52;;;10.70;99.90;;;;;;5108316;28;20051;-46
2024/02/25 11:25:26;;;;;;;6.18;2.60;;;10.40;99.90;;;;;;5108538;28;20222;-48
2024/02/25 11:28:13;;;;;;;6.85;3.97;;;10.70;99.90;;;;;;5090858;28;20031;-47
2024/02/25 11:30:45;;;;;;;8.80;4.25;;;11.30;99.90;;;;;;5108183;28;20025;-48
2024/02/25 11:33:33;;;;;;;6.82;4.13;;;12.40;99.90;;;;;;5108832;28;20027;-46
2024/02/25 11:35:59;;;;;;;7.53;3.65;;;13.40;99.90;;;;;;5108482;28;20100;-46
2024/02/25 11:38:28;;;;;;;4.18;1.90;;;13.20;99.90;;;;;;5108687;28;20032;-47
2024/02/25 11:40:55;;;;;;;3.45;1.70;;;12.40;99.90;;;;;;5108336;28;20266;-48
2024/02/25 11:43:21;;;;;;;2.72;1.25;;;12.70;99.90;;;;;;5090485;28;20043;-48
2024/02/25 11:45:47;;;;;;;4.00;1.83;;;13.30;99.90;;;;;;5108215;28;20028;-45
2024/02/25 11:48:13;;;;;;;3.40;1.90;;;12.70;99.90;;;;;;5108244;28;20032;-49
2024/02/25 11:50:39;;;;;;;2.03;1.50;;;12.80;99.90;;;;;;5108840;28;20034;-49
2024/02/25 11:53:04;;;;;;;2.90;1.75;;;12.70;99.90;;;;;;5107291;28;20085;-47
2024/02/25 11:55:30;;;;;;;4.13;2.13;;;12.90;99.90;;;;;;5107765;28;20016;-49
2024/02/25 11:57:56;;;;;;;6.82;4.13;;;12.50;99.90;;;;;;5108114;28;20126;-49
2024/02/25 12:00:22;;;;;;;8.98;4.57;;;13.20;99.90;;;;;;5107418;28;20024;-47
2024/02/25 12:02:48;;;;;;;6.60;4.30;;;13.70;99.90;;;;;;5107424;28;20028;-50
2024/02/25 12:05:14;;;;;;;4.97;3.30;;;13.30;99.90;;;;;;5107775;28;20024;-46
2024/02/25 12:07:42;;;;;;;4.90;2.65;;;13.80;99.90;;;;;;5108103;28;20281;-46
2024/02/25 12:10:07;;;;;;;6.50;3.70;;;13.50;99.90;;;;;;5108092;28;20099;-48
2024/02/25 12:12:33;;;;;;;15.48;4.35;;;14.30;99.90;;;;;;5107731;28;20043;-46
2024/02/25 12:14:59;;;;;;;9.25;4.40;;;14.80;99.90;;;;;;5107814;28;20047;-47
2024/02/25 12:17:25;;;;;;;8.20;4.00;;;15.20;99.90;;;;;;5107570;28;20023;-46
2024/02/25 12:19:53;;;;;;;9.45;5.43;;;15.50;99.90;;;;;;5106647;28;20032;-49
2024/02/25 12:22:22;;;;;;;8.60;4.70;;;15.30;99.90;;;;;;5107280;28;20040;-49
2024/02/25 12:24:54;;;;;;;8.05;4.50;;;15.80;99.90;;;;;;5107601;28;20024;-50
2024/02/25 12:27:22;;;;;;;6.43;4.07;;;15.50;99.90;;;;;;5107590;28;20032;-49
2024/02/25 12:29:51;;;;;;;6.45;3.88;;;15.90;99.90;;;;;;5107225;28;20044;-46
2024/02/25 12:32:17;;;;;;;7.18;4.18;;;16.50;99.90;;;;;;5107232;28;20024;-47
2024/02/25 12:34:44;;;;;;;6.15;3.53;;;17.30;99.90;;;;;;5107128;28;20024;-47
2024/02/25 12:37:13;;;;;;;7.38;3.72;;;17.60;99.90;;;;;;5107108;28;20031;-47
2024/02/25 12:39:39;;;;;;;8.70;4.47;;;17.70;99.90;;;;;;5106165;28;20270;-49
2024/02/25 12:42:05;;;;;;;5.18;3.40;;;17.90;99.90;;;;;;5107414;28;20046;-49
2024/02/25 12:44:31;;;;;;;6.82;3.90;;;18.20;99.90;;;;;;5107563;28;20038;-46
2024/02/25 12:46:57;;;;;;;7.65;3.45;;;18.10;99.90;;;;;;5106783;28;20031;-49
2024/02/25 12:49:23;;;;;;;7.97;3.78;;;18.10;99.90;;;;;;5089154;28;20027;-48
2024/02/25 12:51:50;;;;;;;9.60;4.55;;;17.20;99.90;;;;;;5107043;28;20035;-48